createdAt,value
2022-12-23T00:00:18.998Z,78.17
2022-12-23T00:02:46.926Z,79.27
2022-12-23T00:05:20.355Z,78.53
2022-12-23T00:07:46.778Z,79.30
2022-12-23T00:10:13.192Z,78.88
2022-12-23T00:12:39.538Z,78.91
2022-12-23T00:15:06.059Z,79.90
2022-12-23T00:17:32.458Z,78.19
2022-12-23T00:19:58.931Z,77.03
2022-12-23T00:22:25.315Z,78.88
2022-12-23T00:24:51.744Z,78.61
2022-12-23T00:27:18.437Z,79.11
2022-12-23T00:29:44.807Z,79.50
2022-12-23T00:32:11.320Z,78.66
2022-12-23T00:34:37.845Z,79.44
2022-12-23T00:37:04.277Z,79.22
2022-12-23T00:39:34.245Z,76.82
2022-12-23T00:42:01.856Z,77.47
2022-12-23T00:44:28.370Z,78.43
2022-12-23T00:46:54.855Z,78.44
2022-12-23T00:49:21.287Z,78.25
2022-12-23T00:51:47.665Z,77.57
2022-12-23T00:54:14.088Z,78.23
2022-12-23T00:56:40.471Z,76.41
2022-12-23T00:59:07.872Z,77.51
2022-12-23T01:01:34.319Z,77.14
2022-12-23T01:04:00.785Z,78.17
2022-12-23T01:06:27.143Z,78.49
2022-12-23T01:08:53.573Z,76.41
2022-12-23T01:11:19.938Z,75.33
2022-12-23T01:13:46.390Z,78.13
2022-12-23T01:16:17.095Z,78.19
2022-12-23T01:18:44.219Z,76.91
2022-12-23T01:21:10.647Z,78.53
2022-12-23T01:23:37.014Z,77.89
2022-12-23T01:26:03.426Z,78.54
2022-12-23T01:28:29.803Z,77.40
2022-12-23T01:30:56.284Z,77.30
2022-12-23T01:33:22.739Z,77.43
2022-12-23T01:35:50.091Z,77.23
2022-12-23T01:38:16.456Z,77.70
2022-12-23T01:40:42.838Z,75.48
2022-12-23T01:43:11.015Z,76.76
2022-12-23T01:45:37.509Z,77.44
2022-12-23T01:48:03.926Z,77.64
2022-12-23T01:50:30.708Z,77.33
2022-12-23T01:53:00.491Z,78.40
2022-12-23T01:55:31.116Z,78.14
2022-12-23T01:57:57.700Z,77.91
2022-12-23T02:00:24.065Z,78.15
2022-12-23T02:02:50.592Z,77.46
2022-12-23T02:05:17.199Z,76.18
2022-12-23T02:07:43.544Z,76.29
2022-12-23T02:10:09.930Z,77.87
2022-12-23T02:12:36.290Z,77.44
2022-12-23T02:15:02.683Z,77.21
2022-12-23T02:17:29.077Z,77.67
2022-12-23T02:19:56.753Z,78.33
2022-12-23T02:22:23.443Z,78.05
2022-12-23T02:24:50.059Z,76.55
2022-12-23T02:27:16.432Z,77.32
2022-12-23T02:29:42.882Z,77.87
2022-12-23T02:32:11.104Z,77.55
2022-12-23T02:34:37.585Z,77.27
2022-12-23T02:37:04.181Z,76.80
2022-12-23T02:39:33.310Z,77.42
2022-12-23T02:41:59.911Z,77.14
2022-12-23T02:44:26.309Z,77.65
2022-12-23T02:46:52.637Z,77.78
2022-12-23T02:49:18.973Z,76.82
2022-12-23T02:51:45.543Z,76.52
2022-12-23T02:54:11.946Z,76.69
2022-12-23T02:56:38.358Z,77.43
2022-12-23T02:59:04.759Z,77.62
2022-12-23T03:01:31.178Z,77.10
2022-12-23T03:03:57.723Z,76.34
2022-12-23T03:06:24.202Z,77.39
2022-12-23T03:08:50.629Z,76.90
2022-12-23T03:11:17.092Z,77.05
2022-12-23T03:13:43.465Z,76.90
2022-12-23T03:16:09.979Z,77.55
2022-12-23T03:18:36.560Z,76.53
2022-12-23T03:21:02.905Z,76.98
2022-12-23T03:23:29.240Z,77.30
2022-12-23T03:25:55.671Z,77.68
2022-12-23T03:28:22.116Z,78.18
2022-12-23T03:30:48.484Z,77.78
2022-12-23T03:33:17.836Z,78.35
2022-12-23T03:35:44.392Z,77.76
2022-12-23T03:38:10.926Z,77.55
2022-12-23T03:40:37.500Z,77.28
2022-12-23T03:43:03.900Z,77.87
2022-12-23T03:45:39.823Z,76.44
2022-12-23T03:48:07.343Z,77.00
2022-12-23T03:50:33.802Z,77.00
2022-12-23T03:53:00.366Z,77.10
2022-12-23T03:55:26.792Z,77.01
2022-12-23T03:57:53.119Z,77.88
2022-12-23T04:00:19.492Z,77.40
2022-12-23T04:02:46.299Z,77.65
2022-12-23T04:05:12.764Z,77.49
2022-12-23T04:07:39.133Z,77.35
2022-12-23T04:10:05.495Z,77.88
2022-12-23T04:12:31.832Z,78.64
2022-12-23T04:14:58.168Z,77.63
2022-12-23T04:17:24.740Z,78.16
2022-12-23T04:19:51.152Z,77.55
2022-12-23T04:22:17.493Z,78.24
2022-12-23T04:24:44.068Z,78.41
2022-12-23T04:27:10.506Z,78.28
2022-12-23T04:29:36.856Z,77.07
2022-12-23T04:32:03.269Z,77.43
2022-12-23T04:34:29.629Z,78.49
2022-12-23T04:36:56.181Z,78.10
2022-12-23T04:39:22.597Z,77.80
2022-12-23T04:41:48.927Z,77.74
2022-12-23T04:44:15.327Z,77.81
2022-12-23T04:46:44.355Z,78.63
2022-12-23T04:49:10.949Z,78.00
2022-12-23T04:51:37.306Z,78.50
2022-12-23T04:54:03.702Z,78.46
2022-12-23T04:56:30.087Z,78.45
2022-12-23T04:58:56.449Z,78.50
2022-12-23T05:01:22.861Z,78.02
2022-12-23T05:03:49.298Z,77.12
2022-12-23T05:06:15.672Z,79.23
2022-12-23T05:08:42.070Z,80.83
2022-12-23T05:11:08.660Z,79.97
2022-12-23T05:13:35.063Z,80.03
2022-12-23T05:16:01.518Z,79.64
2022-12-23T05:18:27.902Z,80.22
2022-12-23T05:20:54.272Z,80.29
2022-12-23T05:23:20.642Z,81.07
2022-12-23T05:25:46.980Z,80.93
2022-12-23T05:28:13.311Z,81.98
2022-12-23T05:30:39.693Z,82.22
2022-12-23T05:33:06.121Z,81.06
2022-12-23T05:35:32.528Z,81.72
2022-12-23T05:37:59.170Z,81.85
2022-12-23T05:40:26.321Z,81.98
2022-12-23T05:42:55.121Z,82.39
2022-12-23T05:45:21.636Z,82.56
2022-12-23T05:47:47.984Z,81.15
2022-12-23T05:50:14.407Z,81.44
2022-12-23T05:52:40.939Z,81.60
2022-12-23T05:55:07.303Z,81.67
2022-12-23T05:57:33.745Z,81.05
2022-12-23T06:00:00.170Z,81.19
2022-12-23T06:02:26.811Z,81.65
2022-12-23T06:04:53.230Z,82.25
2022-12-23T06:07:19.626Z,81.98
2022-12-23T06:09:46.034Z,81.85
2022-12-23T06:12:12.439Z,79.82
2022-12-23T06:14:38.834Z,80.72
2022-12-23T06:17:05.282Z,79.96
2022-12-23T06:19:31.768Z,80.53
2022-12-23T06:21:58.172Z,81.00
2022-12-23T06:24:24.579Z,81.14
2022-12-23T06:26:56.519Z,80.80
2022-12-23T06:29:23.533Z,81.46
2022-12-23T06:31:49.935Z,80.09
2022-12-23T06:34:16.325Z,80.54
2022-12-23T06:36:42.706Z,80.77
2022-12-23T06:39:09.090Z,80.86
2022-12-23T06:41:35.459Z,80.73
2022-12-23T06:44:02.800Z,81.37
2022-12-23T06:46:29.264Z,80.32
2022-12-23T06:48:55.861Z,80.27
2022-12-23T06:51:22.211Z,80.27
2022-12-23T06:53:48.583Z,80.39
2022-12-23T06:56:14.957Z,80.22
2022-12-23T06:58:45.425Z,79.33
2022-12-23T07:03:52.555Z,80.16
2022-12-23T07:06:19.244Z,79.38
2022-12-23T07:08:45.895Z,78.59
2022-12-23T07:11:14.906Z,79.14
2022-12-23T07:13:46.807Z,79.72
2022-12-23T07:16:13.631Z,79.31
2022-12-23T07:21:28.608Z,80.41
2022-12-23T07:23:55.711Z,79.55
2022-12-23T07:26:23.122Z,79.28
2022-12-23T07:28:49.538Z,79.79
2022-12-23T07:31:16.398Z,79.93
2022-12-23T07:33:50.642Z,79.06
2022-12-23T07:36:17.019Z,79.97
2022-12-23T07:38:43.474Z,79.35
2022-12-23T07:41:09.872Z,79.70
2022-12-23T07:43:47.595Z,79.46
2022-12-23T07:46:16.545Z,79.69
2022-12-23T07:48:45.601Z,79.38
2022-12-23T07:51:12.042Z,79.58
2022-12-23T07:53:40.975Z,79.73
2022-12-23T07:56:07.457Z,80.41
2022-12-23T07:58:33.996Z,79.48
2022-12-23T08:01:00.555Z,79.66
2022-12-23T08:03:27.197Z,79.84
2022-12-23T08:05:53.667Z,79.00
2022-12-23T08:08:20.164Z,79.36
2022-12-23T08:10:48.519Z,79.20
2022-12-23T08:13:15.175Z,79.46
2022-12-23T08:18:21.848Z,79.51
2022-12-23T08:20:48.322Z,78.32
2022-12-23T08:23:18.693Z,78.14
2022-12-23T08:25:47.865Z,78.60
2022-12-23T08:28:14.317Z,78.26
2022-12-23T08:30:42.534Z,78.22
2022-12-23T08:33:09.024Z,78.76
2022-12-23T08:35:35.467Z,78.33
2022-12-23T08:38:01.993Z,79.22
2022-12-23T08:40:28.474Z,79.51
2022-12-23T08:43:02.334Z,78.65
2022-12-23T08:45:29.113Z,78.50
2022-12-23T08:47:55.593Z,77.90
2022-12-23T08:50:22.073Z,77.92
2022-12-23T08:52:48.532Z,80.53
2022-12-23T08:55:14.998Z,82.94
2022-12-23T08:57:41.430Z,82.66
2022-12-23T09:00:07.949Z,82.70
2022-12-23T09:02:34.657Z,80.29
2022-12-23T09:05:01.243Z,81.31
2022-12-23T09:07:27.688Z,82.17
2022-12-23T09:09:54.121Z,81.89
2022-12-23T09:12:20.633Z,80.78
2022-12-23T09:14:47.181Z,80.64
2022-12-23T09:17:13.657Z,81.32
2022-12-23T09:19:40.118Z,81.55
2022-12-23T09:22:06.612Z,81.99
2022-12-23T09:24:33.404Z,80.20
2022-12-23T09:26:59.869Z,80.41
2022-12-23T09:29:26.336Z,81.14
2022-12-23T09:31:52.810Z,81.37
2022-12-23T09:34:19.196Z,80.46
2022-12-23T09:36:48.025Z,80.53
2022-12-23T09:39:18.304Z,80.63
2022-12-23T09:41:44.762Z,80.90
2022-12-23T09:44:11.301Z,81.33
2022-12-23T09:46:37.773Z,81.36
2022-12-23T09:49:04.365Z,81.21
2022-12-23T09:51:30.791Z,80.79
2022-12-23T09:53:57.250Z,81.23
2022-12-23T09:56:23.702Z,80.21
2022-12-23T09:58:50.161Z,80.66
2022-12-23T10:01:16.595Z,80.71
2022-12-23T10:03:43.346Z,80.44
2022-12-23T10:06:12.809Z,79.96
2022-12-23T10:08:39.395Z,80.14
2022-12-23T10:11:24.268Z,78.93
2022-12-23T10:13:50.632Z,80.08
2022-12-23T10:16:17.504Z,80.15
2022-12-23T10:18:44.051Z,79.68
2022-12-23T10:21:10.521Z,80.06
2022-12-23T10:23:46.520Z,80.75
2022-12-23T10:26:13.420Z,80.79
2022-12-23T10:28:39.825Z,81.07
2022-12-23T10:31:38.093Z,81.15
2022-12-23T10:33:52.589Z,79.77
2022-12-23T10:36:18.980Z,79.99
2022-12-23T10:38:45.561Z,80.42
2022-12-23T10:41:11.959Z,79.69
2022-12-23T10:43:38.414Z,80.16
2022-12-23T10:46:04.866Z,79.96
2022-12-23T10:48:31.223Z,79.80
2022-12-23T10:51:01.398Z,79.63
2022-12-23T10:53:27.865Z,79.86
2022-12-23T10:55:54.304Z,80.20
2022-12-23T10:58:20.707Z,79.77
2022-12-23T11:00:47.236Z,79.51
2022-12-23T11:03:14.752Z,80.00
2022-12-23T11:05:41.356Z,80.00
2022-12-23T11:08:07.783Z,80.10
2022-12-23T11:10:34.275Z,79.48
2022-12-23T11:13:00.777Z,78.41
2022-12-23T11:15:27.169Z,78.99
2022-12-23T11:17:53.628Z,79.15
2022-12-23T11:20:20.151Z,78.40
2022-12-23T11:22:46.631Z,79.65
2022-12-23T11:25:13.055Z,79.33
2022-12-23T11:27:39.462Z,80.38
2022-12-23T11:30:05.897Z,80.40
2022-12-23T11:32:32.422Z,80.86
2022-12-23T11:34:58.936Z,80.46
2022-12-23T11:37:25.431Z,80.57
2022-12-23T11:39:51.847Z,81.19
2022-12-23T11:42:18.768Z,81.24
2022-12-23T11:44:45.215Z,81.26
2022-12-23T11:47:11.689Z,81.80
2022-12-23T11:49:38.116Z,80.79
2022-12-23T11:52:04.537Z,80.50
2022-12-23T11:54:30.981Z,79.15
2022-12-23T11:56:57.463Z,80.25
2022-12-23T11:59:24.067Z,79.35
2022-12-23T12:01:50.510Z,80.33
2022-12-23T12:04:16.945Z,80.92
2022-12-23T12:06:43.363Z,80.42
2022-12-23T12:09:09.754Z,79.10
2022-12-23T12:11:36.111Z,79.33
2022-12-23T12:14:02.487Z,79.50
2022-12-23T12:16:30.272Z,80.23
2022-12-23T12:18:56.721Z,80.25
2022-12-23T12:21:23.142Z,79.61
2022-12-23T12:24:02.945Z,79.45
2022-12-23T12:26:36.219Z,79.71
2022-12-23T12:29:04.798Z,80.13
2022-12-23T12:31:31.135Z,80.55
2022-12-23T12:34:00.478Z,81.04
2022-12-23T12:36:28.211Z,81.16
2022-12-23T12:38:54.655Z,81.19
2022-12-23T12:41:21.040Z,81.45
2022-12-23T12:43:47.709Z,80.97
2022-12-23T12:46:14.462Z,80.80
2022-12-23T12:48:43.126Z,81.19
2022-12-23T12:51:09.508Z,81.17
2022-12-23T12:53:35.926Z,81.23
2022-12-23T12:56:03.003Z,80.28
2022-12-23T12:58:29.366Z,81.03
2022-12-23T13:00:57.719Z,81.65
2022-12-23T13:03:24.344Z,82.65
2022-12-23T13:05:54.084Z,82.57
2022-12-23T13:08:24.040Z,82.74
2022-12-23T13:10:50.547Z,81.74
2022-12-23T13:13:17.002Z,81.58
2022-12-23T13:15:45.629Z,81.48
2022-12-23T13:18:19.598Z,81.84
2022-12-23T13:20:46.324Z,80.99
2022-12-23T13:23:41.772Z,80.59
2022-12-23T13:25:59.136Z,80.82
2022-12-23T13:28:25.571Z,80.84
2022-12-23T13:30:52.032Z,79.56
2022-12-23T13:33:18.661Z,80.54
2022-12-23T13:35:45.364Z,79.76
2022-12-23T13:38:11.914Z,80.24
2022-12-23T13:40:38.429Z,80.57
2022-12-23T13:43:04.884Z,80.92
2022-12-23T13:45:31.242Z,80.54
2022-12-23T13:48:04.295Z,80.69
2022-12-23T13:50:31.687Z,81.02
2022-12-23T13:52:58.089Z,80.42
2022-12-23T13:58:04.866Z,80.51
2022-12-23T14:00:31.250Z,81.04
2022-12-23T14:02:58.565Z,80.30
2022-12-23T14:05:26.272Z,80.79
2022-12-23T14:07:52.690Z,79.56
2022-12-23T14:10:19.227Z,79.98
2022-12-23T14:12:45.646Z,80.25
2022-12-23T14:15:12.111Z,80.90
2022-12-23T14:17:38.514Z,81.03
2022-12-23T14:20:05.021Z,79.53
2022-12-23T14:22:31.472Z,80.11
2022-12-23T14:24:57.815Z,80.14
2022-12-23T14:27:24.252Z,80.30
2022-12-23T14:29:50.619Z,80.01
2022-12-23T14:32:16.963Z,80.34
2022-12-23T14:34:46.151Z,80.50
2022-12-23T14:37:13.049Z,80.07
2022-12-23T14:39:41.775Z,80.44
2022-12-23T14:47:53.871Z,80.42
2022-12-23T15:02:24.768Z,80.43
2022-12-23T15:07:19.000Z,80.90
2022-12-23T15:09:49.737Z,80.94
2022-12-23T15:12:16.205Z,80.03
2022-12-23T15:14:49.982Z,79.25
2022-12-23T15:17:16.529Z,79.71
2022-12-23T15:19:42.991Z,80.09
2022-12-23T15:22:19.854Z,79.54
2022-12-23T15:24:48.966Z,80.30
2022-12-23T15:27:27.219Z,79.63
2022-12-23T15:29:55.101Z,79.93
2022-12-23T15:32:24.300Z,78.88
2022-12-23T15:34:50.761Z,79.83
2022-12-23T15:37:17.278Z,79.58
2022-12-23T15:39:43.732Z,80.04
2022-12-23T15:42:10.157Z,79.98
2022-12-23T15:44:44.156Z,79.42
2022-12-23T15:47:10.655Z,79.86
2022-12-23T15:49:37.289Z,80.56
2022-12-23T15:52:09.842Z,79.39
2022-12-23T15:54:39.634Z,80.38
2022-12-23T15:57:06.078Z,80.00
2022-12-23T15:59:32.594Z,79.54
2022-12-23T16:01:59.057Z,79.55
2022-12-23T16:04:26.000Z,80.15
2022-12-23T16:06:52.752Z,79.74
2022-12-23T16:09:19.181Z,80.08
2022-12-23T16:11:45.676Z,80.42
2022-12-23T16:14:12.131Z,80.70
2022-12-23T16:16:38.685Z,80.18
2022-12-23T16:19:05.167Z,80.13
2022-12-23T16:21:31.501Z,80.62
2022-12-23T16:23:57.905Z,79.99
2022-12-23T16:26:24.281Z,80.21
2022-12-23T16:28:50.704Z,80.04
2022-12-23T16:31:17.281Z,80.39
2022-12-23T16:33:43.680Z,79.54
2022-12-23T16:36:17.703Z,79.28
2022-12-23T16:38:44.957Z,79.37
2022-12-23T16:41:17.161Z,79.38
2022-12-23T16:43:51.602Z,79.21
2022-12-23T16:46:19.099Z,79.45
2022-12-23T16:48:45.530Z,79.16
2022-12-23T16:51:11.918Z,78.90
2022-12-23T16:56:30.749Z,79.55
2022-12-23T16:58:57.126Z,79.86
2022-12-23T17:01:23.684Z,79.90
2022-12-23T17:03:50.182Z,79.44
2022-12-23T17:06:16.537Z,79.31
2022-12-23T17:08:43.138Z,79.20
2022-12-23T17:11:10.563Z,79.37
2022-12-23T17:13:39.410Z,79.18
2022-12-23T17:16:05.900Z,78.85
2022-12-23T17:18:32.287Z,78.84
2022-12-23T17:20:58.643Z,79.61
2022-12-23T17:23:25.264Z,80.19
2022-12-23T17:25:58.994Z,80.07
2022-12-23T17:28:26.499Z,80.23
2022-12-23T17:30:52.915Z,79.38
2022-12-23T17:33:19.335Z,80.13
2022-12-23T17:35:47.698Z,80.33
2022-12-23T17:40:54.824Z,79.51
2022-12-23T17:43:21.399Z,80.52
2022-12-23T17:45:50.045Z,80.42
2022-12-23T17:48:21.353Z,80.95
2022-12-23T17:50:49.654Z,80.57
2022-12-23T17:53:16.040Z,80.56
2022-12-23T17:55:42.388Z,80.59
2022-12-23T17:58:08.780Z,79.99
2022-12-23T18:00:35.224Z,80.40
2022-12-23T18:03:01.593Z,79.79
2022-12-23T18:05:29.055Z,79.99
2022-12-23T18:13:17.151Z,79.64
2022-12-23T18:15:43.700Z,79.63
2022-12-23T18:18:10.218Z,79.27
2022-12-23T18:20:39.182Z,79.42
2022-12-23T18:23:08.892Z,78.71
2022-12-23T18:28:16.681Z,80.19
2022-12-23T18:30:43.199Z,81.34
2022-12-23T18:33:09.836Z,81.89
2022-12-23T18:35:36.266Z,83.75
2022-12-23T18:38:02.870Z,83.90
2022-12-23T18:40:32.904Z,84.30
2022-12-23T18:42:59.658Z,83.34
2022-12-23T18:45:26.137Z,84.12
2022-12-23T18:47:52.487Z,82.29
2022-12-23T18:50:18.941Z,82.90
2022-12-23T18:52:45.418Z,81.09
2022-12-23T18:55:11.820Z,81.23
2022-12-23T18:57:38.428Z,81.83
2022-12-23T19:00:04.909Z,81.52
2022-12-23T19:02:34.069Z,81.59
2022-12-23T19:05:06.827Z,81.72
2022-12-23T19:07:33.238Z,80.70
2022-12-23T19:09:59.621Z,80.38
2022-12-23T19:12:26.076Z,80.64
2022-12-23T19:14:52.492Z,80.12
2022-12-23T19:17:19.936Z,81.14
2022-12-23T19:19:46.382Z,77.63
2022-12-23T19:22:12.857Z,78.21
2022-12-23T19:24:51.844Z,77.11
2022-12-23T19:27:25.638Z,77.43
2022-12-23T19:29:52.108Z,78.70
2022-12-23T19:32:18.614Z,78.90
2022-12-23T19:34:45.207Z,79.34
2022-12-23T19:37:11.711Z,79.74
2022-12-23T19:39:40.159Z,79.41
2022-12-23T19:42:06.567Z,79.87
2022-12-23T19:44:32.989Z,79.08
2022-12-23T19:47:01.778Z,79.35
2022-12-23T19:49:28.214Z,79.86
2022-12-23T19:51:58.373Z,80.38
2022-12-23T19:54:24.853Z,80.67
2022-12-23T19:56:51.274Z,80.01
2022-12-23T19:59:17.714Z,80.32
2022-12-23T20:01:44.241Z,80.07
2022-12-23T20:09:31.267Z,81.12
2022-12-23T20:11:57.909Z,80.98
2022-12-23T20:14:26.730Z,80.85
2022-12-23T20:16:56.898Z,80.04
2022-12-23T20:19:23.385Z,80.40
2022-12-23T20:21:49.811Z,80.62
2022-12-23T20:24:16.291Z,80.78
2022-12-23T20:26:42.737Z,81.25
2022-12-23T20:29:09.164Z,80.47
2022-12-23T20:31:35.698Z,80.52
2022-12-23T20:34:02.190Z,80.25
2022-12-23T20:36:28.773Z,80.76
2022-12-23T20:38:55.205Z,80.57
2022-12-23T20:41:25.000Z,80.50
2022-12-23T20:46:52.818Z,80.30
2022-12-23T20:49:19.304Z,80.04
2022-12-23T20:51:45.798Z,80.56
2022-12-23T20:54:12.516Z,78.76
2022-12-23T20:56:39.439Z,79.14
2022-12-23T20:59:13.633Z,80.03
2022-12-23T21:01:40.059Z,79.93
2022-12-23T21:04:06.723Z,80.06
2022-12-23T21:06:33.142Z,79.82
2022-12-23T21:08:59.626Z,79.99
2022-12-23T21:11:26.964Z,78.86
2022-12-23T21:13:53.477Z,78.60
2022-12-23T21:16:22.948Z,78.72
2022-12-23T21:18:49.477Z,78.44
2022-12-23T21:21:16.052Z,79.86
2022-12-23T21:23:42.515Z,78.94
2022-12-23T21:26:10.274Z,78.74
2022-12-23T21:28:36.825Z,78.95
2022-12-23T21:31:06.771Z,79.04
2022-12-23T21:33:33.191Z,80.11
2022-12-23T21:35:59.682Z,79.66
2022-12-23T21:38:26.214Z,79.74
2022-12-23T21:40:52.768Z,78.99
2022-12-23T21:43:19.364Z,78.64
2022-12-23T21:45:45.794Z,79.58
2022-12-23T21:48:12.183Z,78.12
2022-12-23T21:50:38.609Z,78.39
2022-12-23T21:53:05.050Z,79.03
2022-12-23T21:55:31.441Z,78.39
2022-12-23T21:58:00.000Z,79.16
2022-12-23T22:00:26.701Z,79.34
2022-12-23T22:03:04.408Z,79.64
2022-12-23T22:05:38.365Z,79.20
2022-12-23T22:08:24.710Z,79.44
2022-12-23T22:10:53.470Z,79.11
2022-12-23T22:13:19.941Z,79.16
2022-12-23T22:15:48.623Z,78.73
2022-12-23T22:18:15.142Z,78.52
2022-12-23T22:20:46.228Z,78.06
2022-12-23T22:23:17.016Z,78.66
2022-12-23T22:25:45.594Z,79.42
2022-12-23T22:28:14.243Z,78.38
2022-12-23T22:30:40.622Z,78.35
2022-12-23T22:33:07.034Z,78.39
2022-12-23T22:35:33.606Z,78.27
2022-12-23T22:38:00.053Z,77.22
2022-12-23T22:40:26.564Z,77.09
2022-12-23T22:42:55.405Z,78.26
2022-12-23T22:45:21.853Z,78.60
2022-12-23T22:47:48.293Z,78.52
2022-12-23T22:50:15.049Z,78.18
2022-12-23T22:52:41.513Z,78.96
2022-12-23T22:55:07.948Z,78.99
2022-12-23T22:57:36.812Z,77.90
2022-12-23T23:00:09.650Z,78.49
2022-12-23T23:02:38.609Z,78.18
2022-12-23T23:05:10.778Z,76.27
2022-12-23T23:07:39.223Z,76.33
2022-12-23T23:10:06.089Z,77.04
2022-12-23T23:12:34.977Z,77.85
2022-12-23T23:15:02.458Z,77.12
2022-12-23T23:17:35.150Z,76.24
2022-12-23T23:20:01.618Z,77.34
2022-12-23T23:22:28.069Z,77.36
2022-12-23T23:24:55.092Z,77.11
2022-12-23T23:27:21.565Z,77.16
2022-12-23T23:29:50.482Z,76.79
2022-12-23T23:32:17.073Z,77.47
2022-12-23T23:34:43.521Z,77.22
2022-12-23T23:37:09.954Z,77.18
2022-12-23T23:39:36.404Z,77.58
2022-12-23T23:42:03.052Z,77.88
2022-12-23T23:44:29.562Z,77.16
2022-12-23T23:46:59.517Z,77.36
2022-12-23T23:49:25.959Z,77.91
2022-12-23T23:51:52.345Z,77.18
2022-12-23T23:54:19.597Z,77.10
2022-12-23T23:56:45.954Z,77.34
2022-12-23T23:59:12.347Z,77.61
